sensor_id;sensor_type;location;lat;lon;timestamp;pressure;altitude;pressure_sealevel;temperature;humidity
56825;BME280;42705;50.326;18.772;2022-07-19T00:01:11;99078.05;;;20.73;44.06
56825;BME280;42705;50.326;18.772;2022-07-19T00:06:32;99077.73;;;20.72;44.24
56825;BME280;42705;50.326;18.772;2022-07-19T00:11:55;99069.93;;;20.71;44.35
56825;BME280;42705;50.326;18.772;2022-07-19T00:17:16;99070.14;;;20.69;44.54
56825;BME280;42705;50.326;18.772;2022-07-19T00:22:37;99075.64;;;20.67;44.53
56825;BME280;42705;50.326;18.772;2022-07-19T00:27:58;99064.05;;;20.64;44.63
56825;BME280;42705;50.326;18.772;2022-07-19T00:33:19;99066.88;;;20.63;44.78
56825;BME280;42705;50.326;18.772;2022-07-19T00:38:40;99069.30;;;20.58;44.71
56825;BME280;42705;50.326;18.772;2022-07-19T00:44:01;99061.90;;;20.53;44.70
56825;BME280;42705;50.326;18.772;2022-07-19T00:49:22;99074.44;;;20.48;44.76
56825;BME280;42705;50.326;18.772;2022-07-19T00:54:43;99077.47;;;20.45;44.95
56825;BME280;42705;50.326;18.772;2022-07-19T01:00:06;99075.51;;;20.43;44.93
56825;BME280;42705;50.326;18.772;2022-07-19T01:05:28;99078.55;;;20.40;45.05
56825;BME280;42705;50.326;18.772;2022-07-19T01:10:49;99071.44;;;20.36;45.20
56825;BME280;42705;50.326;18.772;2022-07-19T01:16:10;99074.80;;;20.34;45.33
56825;BME280;42705;50.326;18.772;2022-07-19T01:21:31;99075.70;;;20.31;45.50
56825;BME280;42705;50.326;18.772;2022-07-19T01:26:52;99073.41;;;20.28;45.63
56825;BME280;42705;50.326;18.772;2022-07-19T01:32:13;99069.14;;;20.22;45.71
56825;BME280;42705;50.326;18.772;2022-07-19T01:37:34;99068.19;;;20.19;45.90
56825;BME280;42705;50.326;18.772;2022-07-19T01:42:57;99067.23;;;20.16;46.12
56825;BME280;42705;50.326;18.772;2022-07-19T01:48:28;99071.11;;;20.14;46.30
56825;BME280;42705;50.326;18.772;2022-07-19T01:53:49;99066.66;;;20.10;46.39
56825;BME280;42705;50.326;18.772;2022-07-19T01:59:10;99068.54;;;20.05;46.67
56825;BME280;42705;50.326;18.772;2022-07-19T02:04:31;99070.77;;;20.02;46.66
56825;BME280;42705;50.326;18.772;2022-07-19T02:09:52;99077.59;;;20.00;46.83
56825;BME280;42705;50.326;18.772;2022-07-19T02:15:13;99073.34;;;19.95;46.85
56825;BME280;42705;50.326;18.772;2022-07-19T02:20:34;99080.36;;;19.92;47.03
56825;BME280;42705;50.326;18.772;2022-07-19T02:25:55;99073.91;;;19.86;47.21
56825;BME280;42705;50.326;18.772;2022-07-19T02:31:16;99071.35;;;19.78;47.43
56825;BME280;42705;50.326;18.772;2022-07-19T02:36:36;99071.41;;;19.74;47.69
56825;BME280;42705;50.326;18.772;2022-07-19T02:41:57;99070.45;;;19.71;47.80
56825;BME280;42705;50.326;18.772;2022-07-19T02:47:18;99071.14;;;19.69;47.85
56825;BME280;42705;50.326;18.772;2022-07-19T02:52:39;99071.83;;;19.66;48.11
56825;BME280;42705;50.326;18.772;2022-07-19T02:58:00;99074.86;;;19.63;48.16
56825;BME280;42705;50.326;18.772;2022-07-19T03:03:20;99077.88;;;19.60;48.22
56825;BME280;42705;50.326;18.772;2022-07-19T03:09:00;99083.94;;;19.54;48.07
56825;BME280;42705;50.326;18.772;2022-07-19T03:14:21;99084.37;;;19.43;48.12
56825;BME280;42705;50.326;18.772;2022-07-19T03:19:42;99086.16;;;19.31;48.23
56825;BME280;42705;50.326;18.772;2022-07-19T03:25:03;99095.89;;;19.20;48.35
56825;BME280;42705;50.326;18.772;2022-07-19T03:30:25;99092.66;;;19.09;48.55
56825;BME280;42705;50.326;18.772;2022-07-19T03:35:47;99093.89;;;19.03;48.82
56825;BME280;42705;50.326;18.772;2022-07-19T03:41:08;99099.23;;;18.99;49.01
56825;BME280;42705;50.326;18.772;2022-07-19T03:46:28;99098.89;;;18.93;49.16
56825;BME280;42705;50.326;18.772;2022-07-19T03:51:49;99105.60;;;18.85;49.28
56825;BME280;42705;50.326;18.772;2022-07-19T03:57:10;99109.49;;;18.74;49.42
56825;BME280;42705;50.326;18.772;2022-07-19T04:02:31;99107.23;;;18.67;49.63
56825;BME280;42705;50.326;18.772;2022-07-19T04:07:53;99111.11;;;18.60;49.79
56825;BME280;42705;50.326;18.772;2022-07-19T04:13:14;99110.63;;;18.57;50.05
56825;BME280;42705;50.326;18.772;2022-07-19T04:18:34;99104.15;;;18.55;50.32
56825;BME280;42705;50.326;18.772;2022-07-19T04:23:55;99105.64;;;18.58;50.41
56825;BME280;42705;50.326;18.772;2022-07-19T04:29:16;99103.95;;;18.61;50.67
56825;BME280;42705;50.326;18.772;2022-07-19T04:34:38;99095.16;;;18.64;50.88
56825;BME280;42705;50.326;18.772;2022-07-19T04:39:59;99097.94;;;18.67;50.96
56825;BME280;42705;50.326;18.772;2022-07-19T04:45:20;99097.58;;;18.70;50.93
56825;BME280;42705;50.326;18.772;2022-07-19T04:50:41;99105.41;;;18.68;50.88
56825;BME280;42705;50.326;18.772;2022-07-19T04:56:02;99108.27;;;18.62;50.95
56825;BME280;42705;50.326;18.772;2022-07-19T05:01:22;99111.56;;;18.64;51.17
56825;BME280;42705;50.326;18.772;2022-07-19T05:06:43;99112.86;;;18.68;51.26
56825;BME280;42705;50.326;18.772;2022-07-19T05:12:05;99112.17;;;18.70;51.16
56825;BME280;42705;50.326;18.772;2022-07-19T05:17:27;99108.52;;;18.75;51.35
56825;BME280;42705;50.326;18.772;2022-07-19T05:22:49;99112.56;;;18.86;51.53
56825;BME280;42705;50.326;18.772;2022-07-19T05:28:09;99111.67;;;18.94;51.42
56825;BME280;42705;50.326;18.772;2022-07-19T05:33:30;99103.02;;;19.00;51.20
56825;BME280;42705;50.326;18.772;2022-07-19T05:38:52;99108.94;;;19.06;51.15
56825;BME280;42705;50.326;18.772;2022-07-19T05:44:13;99111.92;;;19.07;51.01
56825;BME280;42705;50.326;18.772;2022-07-19T05:49:34;99103.06;;;19.15;51.17
56825;BME280;42705;50.326;18.772;2022-07-19T05:54:55;99106.60;;;19.27;51.25
56825;BME280;42705;50.326;18.772;2022-07-19T06:00:16;99101.87;;;19.37;51.33
56825;BME280;42705;50.326;18.772;2022-07-19T06:05:37;99096.84;;;19.42;51.25
56825;BME280;42705;50.326;18.772;2022-07-19T06:10:58;99106.05;;;19.50;51.30
56825;BME280;42705;50.326;18.772;2022-07-19T06:16:19;99103.98;;;19.57;51.25
56825;BME280;42705;50.326;18.772;2022-07-19T06:21:40;99097.77;;;19.64;51.43
56825;BME280;42705;50.326;18.772;2022-07-19T06:27:01;99096.02;;;19.72;51.41
56825;BME280;42705;50.326;18.772;2022-07-19T06:32:22;99096.75;;;19.80;51.45
56825;BME280;42705;50.326;18.772;2022-07-19T06:37:43;99090.32;;;19.90;51.58
56825;BME280;42705;50.326;18.772;2022-07-19T06:43:04;99090.50;;;20.03;51.49
56825;BME280;42705;50.326;18.772;2022-07-19T06:48:25;99087.56;;;20.13;51.31
56825;BME280;42705;50.326;18.772;2022-07-19T06:53:45;99095.05;;;20.24;51.46
56825;BME280;42705;50.326;18.772;2022-07-19T06:59:06;99103.05;;;20.35;51.50
56825;BME280;42705;50.326;18.772;2022-07-19T07:04:27;99101.18;;;20.51;51.38
56825;BME280;42705;50.326;18.772;2022-07-19T07:09:48;99097.17;;;20.62;51.13
56825;BME280;42705;50.326;18.772;2022-07-19T07:15:09;99093.19;;;20.73;51.39
56825;BME280;42705;50.326;18.772;2022-07-19T07:20:30;99093.36;;;20.86;51.32
56825;BME280;42705;50.326;18.772;2022-07-19T07:25:51;99104.22;;;21.02;51.51
56825;BME280;42705;50.326;18.772;2022-07-19T07:31:14;99096.35;;;21.16;51.03
56825;BME280;42705;50.326;18.772;2022-07-19T07:36:35;99097.27;;;21.30;50.60
56825;BME280;42705;50.326;18.772;2022-07-19T07:41:55;99096.16;;;21.46;50.53
56825;BME280;42705;50.326;18.772;2022-07-19T07:47:16;99094.49;;;21.62;50.36
56825;BME280;42705;50.326;18.772;2022-07-19T07:52:37;99088.36;;;21.79;50.37
56825;BME280;42705;50.326;18.772;2022-07-19T07:57:58;99092.66;;;21.98;49.69
56825;BME280;42705;50.326;18.772;2022-07-19T08:03:19;99095.99;;;22.14;49.04
56825;BME280;42705;50.326;18.772;2022-07-19T08:08:40;99088.77;;;22.32;48.60
56825;BME280;42705;50.326;18.772;2022-07-19T08:14:02;99080.61;;;22.53;47.86
56825;BME280;42705;50.326;18.772;2022-07-19T08:19:23;99084.73;;;22.69;46.99
56825;BME280;42705;50.326;18.772;2022-07-19T08:24:44;99089.08;;;22.84;46.23
56825;BME280;42705;50.326;18.772;2022-07-19T08:30:06;99084.34;;;22.99;45.26
56825;BME280;42705;50.326;18.772;2022-07-19T08:35:28;99077.04;;;23.18;44.73
56825;BME280;42705;50.326;18.772;2022-07-19T08:40:50;99077.38;;;23.32;44.30
56825;BME280;42705;50.326;18.772;2022-07-19T08:46:12;99088.23;;;23.44;43.84
56825;BME280;42705;50.326;18.772;2022-07-19T08:51:34;99077.41;;;23.55;43.24
56825;BME280;42705;50.326;18.772;2022-07-19T08:56:55;99077.91;;;23.61;43.00
56825;BME280;42705;50.326;18.772;2022-07-19T09:02:34;99075.11;;;23.65;42.90
56825;BME280;42705;50.326;18.772;2022-07-19T09:08:05;99079.30;;;23.77;42.34
56825;BME280;42705;50.326;18.772;2022-07-19T09:13:26;99075.45;;;23.89;41.40
56825;BME280;42705;50.326;18.772;2022-07-19T09:18:47;99067.18;;;23.97;41.29
56825;BME280;42705;50.326;18.772;2022-07-19T09:24:09;99053.81;;;24.04;41.33
56825;BME280;42705;50.326;18.772;2022-07-19T09:29:31;99052.06;;;24.23;40.61
56825;BME280;42705;50.326;18.772;2022-07-19T09:34:58;99054.88;;;24.35;40.17
56825;BME280;42705;50.326;18.772;2022-07-19T09:40:29;99057.09;;;24.45;40.24
56825;BME280;42705;50.326;18.772;2022-07-19T09:45:50;99048.95;;;24.59;40.48
56825;BME280;42705;50.326;18.772;2022-07-19T09:51:10;99045.66;;;24.73;40.82
56825;BME280;42705;50.326;18.772;2022-07-19T09:56:32;99045.72;;;24.91;39.68
56825;BME280;42705;50.326;18.772;2022-07-19T10:01:55;99042.55;;;25.01;38.94
56825;BME280;42705;50.326;18.772;2022-07-19T10:07:17;99038.54;;;25.10;38.57
56825;BME280;42705;50.326;18.772;2022-07-19T10:12:41;99031.63;;;25.21;38.37
56825;BME280;42705;50.326;18.772;2022-07-19T10:18:14;99031.57;;;25.28;38.07
56825;BME280;42705;50.326;18.772;2022-07-19T10:23:38;99037.08;;;25.42;37.25
56825;BME280;42705;50.326;18.772;2022-07-19T10:29:11;99032.27;;;25.51;36.59
56825;BME280;42705;50.326;18.772;2022-07-19T10:34:33;99028.69;;;25.57;36.33
56825;BME280;42705;50.326;18.772;2022-07-19T10:39:57;99030.31;;;25.68;36.12
56825;BME280;42705;50.326;18.772;2022-07-19T10:45:19;99017.79;;;25.71;35.98
56825;BME280;42705;50.326;18.772;2022-07-19T10:50:48;99022.87;;;25.79;36.28
56825;BME280;42705;50.326;18.772;2022-07-19T11:01:57;99017.29;;;26.02;35.56
56825;BME280;42705;50.326;18.772;2022-07-19T11:07:22;99010.84;;;26.12;35.60
56825;BME280;42705;50.326;18.772;2022-07-19T11:12:43;99005.53;;;26.24;35.54
56825;BME280;42705;50.326;18.772;2022-07-19T11:18:07;99001.91;;;26.40;35.46
56825;BME280;42705;50.326;18.772;2022-07-19T11:23:30;98993.34;;;26.52;35.23
56825;BME280;42705;50.326;18.772;2022-07-19T11:28:52;98993.18;;;26.68;34.95
56825;BME280;42705;50.326;18.772;2022-07-19T11:34:14;98997.88;;;26.85;34.71
56825;BME280;42705;50.326;18.772;2022-07-19T11:39:48;98987.23;;;27.02;34.59
56825;BME280;42705;50.326;18.772;2022-07-19T11:45:15;98983.30;;;27.19;34.30
56825;BME280;42705;50.326;18.772;2022-07-19T11:50:38;98982.77;;;27.32;33.90
56825;BME280;42705;50.326;18.772;2022-07-19T11:56:02;98974.36;;;27.42;33.95
56825;BME280;42705;50.326;18.772;2022-07-19T12:01:35;98971.16;;;27.55;33.85
56825;BME280;42705;50.326;18.772;2022-07-19T12:06:59;98979.02;;;27.73;33.35
56825;BME280;42705;50.326;18.772;2022-07-19T12:12:20;98966.67;;;28.04;32.71
56825;BME280;42705;50.326;18.772;2022-07-19T12:17:53;98957.27;;;28.21;32.47
56825;BME280;42705;50.326;18.772;2022-07-19T12:23:14;98956.76;;;28.39;32.64
56825;BME280;42705;50.326;18.772;2022-07-19T12:28:37;98964.39;;;28.62;31.97
56825;BME280;42705;50.326;18.772;2022-07-19T12:34:00;98960.44;;;28.86;31.28
56825;BME280;42705;50.326;18.772;2022-07-19T12:39:24;98957.25;;;29.09;30.75
56825;BME280;42705;50.326;18.772;2022-07-19T12:44:47;98943.10;;;29.22;30.46
56825;BME280;42705;50.326;18.772;2022-07-19T12:50:19;98942.43;;;29.34;30.26
56825;BME280;42705;50.326;18.772;2022-07-19T12:55:45;98946.52;;;29.59;29.95
56825;BME280;42705;50.326;18.772;2022-07-19T13:01:07;98937.81;;;30.04;29.35
56825;BME280;42705;50.326;18.772;2022-07-19T13:06:29;98927.81;;;30.40;28.81
56825;BME280;42705;50.326;18.772;2022-07-19T13:11:50;98927.56;;;30.82;28.77
56825;BME280;42705;50.326;18.772;2022-07-19T13:17:10;98923.38;;;31.12;28.68
56825;BME280;42705;50.326;18.772;2022-07-19T13:22:32;98920.48;;;31.31;28.29
56825;BME280;42705;50.326;18.772;2022-07-19T13:27:52;98915.41;;;31.61;28.11
56825;BME280;42705;50.326;18.772;2022-07-19T13:33:14;98921.63;;;32.83;27.19
56825;BME280;42705;50.326;18.772;2022-07-19T13:38:34;98912.17;;;35.81;24.79
56825;BME280;42705;50.326;18.772;2022-07-19T13:44:00;98912.97;;;38.34;22.93
56825;BME280;42705;50.326;18.772;2022-07-19T13:49:21;98902.09;;;40.48;21.03
56825;BME280;42705;50.326;18.772;2022-07-19T13:54:42;98891.61;;;42.39;20.22
56825;BME280;42705;50.326;18.772;2022-07-19T14:00:04;98885.72;;;43.85;18.21
56825;BME280;42705;50.326;18.772;2022-07-19T14:05:29;98880.82;;;45.10;17.10
56825;BME280;42705;50.326;18.772;2022-07-19T14:10:54;98875.66;;;46.37;16.03
56825;BME280;42705;50.326;18.772;2022-07-19T14:16:16;98867.50;;;47.67;15.63
56825;BME280;42705;50.326;18.772;2022-07-19T14:21:37;98857.37;;;48.66;14.53
56825;BME280;42705;50.326;18.772;2022-07-19T14:26:58;98851.38;;;48.95;13.55
56825;BME280;42705;50.326;18.772;2022-07-19T14:32:20;98846.18;;;49.44;13.10
56825;BME280;42705;50.326;18.772;2022-07-19T14:37:40;98847.85;;;50.06;12.60
56825;BME280;42705;50.326;18.772;2022-07-19T14:43:01;98840.66;;;48.98;11.91
56825;BME280;42705;50.326;18.772;2022-07-19T14:48:23;98830.10;;;47.99;12.29
56825;BME280;42705;50.326;18.772;2022-07-19T14:53:43;98827.70;;;48.46;12.30
56825;BME280;42705;50.326;18.772;2022-07-19T14:59:05;98819.90;;;49.16;12.15
56825;BME280;42705;50.326;18.772;2022-07-19T15:04:26;98821.73;;;49.36;11.83
56825;BME280;42705;50.326;18.772;2022-07-19T15:09:47;98820.69;;;49.13;11.70
56825;BME280;42705;50.326;18.772;2022-07-19T15:15:08;98819.75;;;48.44;11.88
56825;BME280;42705;50.326;18.772;2022-07-19T15:20:31;98820.20;;;47.56;12.13
56825;BME280;42705;50.326;18.772;2022-07-19T15:25:53;98814.90;;;46.89;12.30
56825;BME280;42705;50.326;18.772;2022-07-19T15:31:13;98804.77;;;47.21;12.26
56825;BME280;42705;50.326;18.772;2022-07-19T15:36:35;98804.79;;;47.59;12.20
56825;BME280;42705;50.326;18.772;2022-07-19T15:41:55;98803.53;;;47.98;12.26
56825;BME280;42705;50.326;18.772;2022-07-19T15:47:16;98797.84;;;47.79;11.90
56825;BME280;42705;50.326;18.772;2022-07-19T15:52:38;98799.05;;;46.72;12.01
56825;BME280;42705;50.326;18.772;2022-07-19T15:57:59;98793.52;;;46.45;12.30
56825;BME280;42705;50.326;18.772;2022-07-19T16:03:21;98790.23;;;46.63;12.42
56825;BME280;42705;50.326;18.772;2022-07-19T16:08:41;98790.68;;;46.68;12.24
56825;BME280;42705;50.326;18.772;2022-07-19T16:14:02;98775.92;;;46.74;12.37
56825;BME280;42705;50.326;18.772;2022-07-19T16:19:23;98772.89;;;46.70;12.22
56825;BME280;42705;50.326;18.772;2022-07-19T16:24:44;98776.93;;;46.32;12.43
56825;BME280;42705;50.326;18.772;2022-07-19T16:30:06;98771.86;;;45.64;13.19
56825;BME280;42705;50.326;18.772;2022-07-19T16:35:28;98763.22;;;45.22;13.52
56825;BME280;42705;50.326;18.772;2022-07-19T16:40:49;98770.30;;;44.90;13.70
56825;BME280;42705;50.326;18.772;2022-07-19T16:46:10;98769.62;;;44.58;13.55
56825;BME280;42705;50.326;18.772;2022-07-19T16:51:31;98766.42;;;43.72;13.54
56825;BME280;42705;50.326;18.772;2022-07-19T16:56:52;98771.63;;;42.75;13.84
56825;BME280;42705;50.326;18.772;2022-07-19T17:02:13;98780.48;;;41.75;14.20
56825;BME280;42705;50.326;18.772;2022-07-19T17:07:35;98773.27;;;40.82;14.72
56825;BME280;42705;50.326;18.772;2022-07-19T17:12:56;98771.22;;;40.10;15.47
56825;BME280;42705;50.326;18.772;2022-07-19T17:18:17;98766.14;;;39.67;16.34
56825;BME280;42705;50.326;18.772;2022-07-19T17:23:38;98756.44;;;39.28;16.43
56825;BME280;42705;50.326;18.772;2022-07-19T17:28:58;98756.77;;;38.65;16.98
56825;BME280;42705;50.326;18.772;2022-07-19T17:34:19;98756.69;;;38.39;17.51
56825;BME280;42705;50.326;18.772;2022-07-19T17:39:42;98758.02;;;38.21;17.96
56825;BME280;42705;50.326;18.772;2022-07-19T17:45:05;98760.11;;;37.84;18.02
56825;BME280;42705;50.326;18.772;2022-07-19T17:50:27;98762.89;;;37.38;18.46
56825;BME280;42705;50.326;18.772;2022-07-19T17:55:47;98772.44;;;37.04;18.81
56825;BME280;42705;50.326;18.772;2022-07-19T18:01:08;98770.89;;;36.61;19.07
56825;BME280;42705;50.326;18.772;2022-07-19T18:06:29;98770.84;;;36.07;19.48
56825;BME280;42705;50.326;18.772;2022-07-19T18:11:52;98768.34;;;35.47;19.97
56825;BME280;42705;50.326;18.772;2022-07-19T18:17:13;98763.70;;;34.93;20.49
56825;BME280;42705;50.326;18.772;2022-07-19T18:22:34;98780.98;;;34.37;21.09
56825;BME280;42705;50.326;18.772;2022-07-19T18:27:56;98784.17;;;33.90;21.76
56825;BME280;42705;50.326;18.772;2022-07-19T18:33:17;98780.78;;;33.45;22.27
56825;BME280;42705;50.326;18.772;2022-07-19T18:38:38;98797.63;;;32.97;22.75
56825;BME280;42705;50.326;18.772;2022-07-19T18:44:00;98798.65;;;32.45;23.19
56825;BME280;42705;50.326;18.772;2022-07-19T18:49:20;98796.84;;;31.94;23.79
56825;BME280;42705;50.326;18.772;2022-07-19T18:54:42;98797.64;;;31.43;24.34
56825;BME280;42705;50.326;18.772;2022-07-19T19:00:04;98802.69;;;31.00;25.14
56825;BME280;42705;50.326;18.772;2022-07-19T19:05:26;98820.69;;;30.66;26.05
56825;BME280;42705;50.326;18.772;2022-07-19T19:10:48;98814.86;;;30.34;26.71
56825;BME280;42705;50.326;18.772;2022-07-19T19:16:09;98822.77;;;30.03;27.13
56825;BME280;42705;50.326;18.772;2022-07-19T19:21:29;98827.63;;;29.73;27.71
56825;BME280;42705;50.326;18.772;2022-07-19T19:26:50;98828.73;;;29.45;28.70
56825;BME280;42705;50.326;18.772;2022-07-19T19:32:11;98843.27;;;29.16;28.89
56825;BME280;42705;50.326;18.772;2022-07-19T19:37:35;98850.98;;;28.85;29.25
56825;BME280;42705;50.326;18.772;2022-07-19T19:42:57;98854.37;;;28.56;30.22
56825;BME280;42705;50.326;18.772;2022-07-19T19:48:18;98850.44;;;28.24;32.52
56825;BME280;42705;50.326;18.772;2022-07-19T19:53:41;98849.87;;;27.91;34.75
56825;BME280;42705;50.326;18.772;2022-07-19T19:59:01;98853.08;;;27.56;36.54
56825;BME280;42705;50.326;18.772;2022-07-19T20:04:23;98853.53;;;27.24;37.16
56825;BME280;42705;50.326;18.772;2022-07-19T20:09:44;98860.48;;;26.93;38.61
56825;BME280;42705;50.326;18.772;2022-07-19T20:15:06;98860.20;;;26.68;39.03
56825;BME280;42705;50.326;18.772;2022-07-19T20:20:29;98862.38;;;26.45;39.10
56825;BME280;42705;50.326;18.772;2022-07-19T20:25:50;98866.47;;;26.24;39.71
56825;BME280;42705;50.326;18.772;2022-07-19T20:31:10;98870.27;;;26.04;40.59
56825;BME280;42705;50.326;18.772;2022-07-19T20:36:31;98871.70;;;25.85;41.11
56825;BME280;42705;50.326;18.772;2022-07-19T20:41:52;98870.42;;;25.67;41.76
56825;BME280;42705;50.326;18.772;2022-07-19T20:53:00;98872.50;;;25.34;41.90
56825;BME280;42705;50.326;18.772;2022-07-19T20:58:21;98868.95;;;25.22;42.75
56825;BME280;42705;50.326;18.772;2022-07-19T21:03:43;98868.36;;;25.10;42.94
56825;BME280;42705;50.326;18.772;2022-07-19T21:09:04;98870.25;;;25.00;42.53
56825;BME280;42705;50.326;18.772;2022-07-19T21:14:25;98873.45;;;24.91;43.02
56825;BME280;42705;50.326;18.772;2022-07-19T21:19:45;98876.55;;;24.78;42.81
56825;BME280;42705;50.326;18.772;2022-07-19T21:25:07;98877.86;;;24.69;43.36
56825;BME280;42705;50.326;18.772;2022-07-19T21:30:28;98881.64;;;24.61;44.05
56825;BME280;42705;50.326;18.772;2022-07-19T21:35:49;98878.45;;;24.52;43.26
56825;BME280;42705;50.326;18.772;2022-07-19T21:41:10;98884.76;;;24.49;43.60
56825;BME280;42705;50.326;18.772;2022-07-19T21:46:31;98880.09;;;24.44;44.19
56825;BME280;42705;50.326;18.772;2022-07-19T21:51:52;98882.28;;;24.38;44.29
56825;BME280;42705;50.326;18.772;2022-07-19T21:57:13;98881.92;;;24.34;43.87
56825;BME280;42705;50.326;18.772;2022-07-19T22:02:34;98885.48;;;24.28;43.86
56825;BME280;42705;50.326;18.772;2022-07-19T22:07:54;98882.25;;;24.19;44.37
56825;BME280;42705;50.326;18.772;2022-07-19T22:13:15;98882.73;;;24.09;44.89
56825;BME280;42705;50.326;18.772;2022-07-19T22:18:36;98886.69;;;24.00;45.56
56825;BME280;42705;50.326;18.772;2022-07-19T22:23:57;98889.84;;;23.90;45.56
56825;BME280;42705;50.326;18.772;2022-07-19T22:29:18;98883.33;;;23.79;45.63
56825;BME280;42705;50.326;18.772;2022-07-19T22:34:39;98887.91;;;23.72;45.94
56825;BME280;42705;50.326;18.772;2022-07-19T22:40:03;98891.88;;;23.63;46.27
56825;BME280;42705;50.326;18.772;2022-07-19T22:45:27;98894.80;;;23.54;46.53
56825;BME280;42705;50.326;18.772;2022-07-19T22:50:47;98894.53;;;23.47;46.85
56825;BME280;42705;50.326;18.772;2022-07-19T22:56:10;98893.45;;;23.38;47.29
56825;BME280;42705;50.326;18.772;2022-07-19T23:01:31;98894.20;;;23.30;47.81
56825;BME280;42705;50.326;18.772;2022-07-19T23:06:52;98896.78;;;23.20;47.94
56825;BME280;42705;50.326;18.772;2022-07-19T23:12:13;98894.36;;;23.12;48.24
56825;BME280;42705;50.326;18.772;2022-07-19T23:17:34;98894.27;;;23.03;48.15
56825;BME280;42705;50.326;18.772;2022-07-19T23:22:55;98899.95;;;22.97;48.11
56825;BME280;42705;50.326;18.772;2022-07-19T23:28:15;98902.41;;;22.92;48.09
56825;BME280;42705;50.326;18.772;2022-07-19T23:33:36;98907.86;;;22.88;47.81
56825;BME280;42705;50.326;18.772;2022-07-19T23:38:57;98909.31;;;22.83;47.94
56825;BME280;42705;50.326;18.772;2022-07-19T23:44:18;98915.30;;;22.79;48.16
56825;BME280;42705;50.326;18.772;2022-07-19T23:49:39;98910.77;;;22.73;48.54
56825;BME280;42705;50.326;18.772;2022-07-19T23:54:59;98907.30;;;22.65;48.66
